sensor_id;sensor_type;location;lat;lon;timestamp;temperature;humidity
84807;DHT22;75042;43.504;3.714;2024-03-02T00:01:24;6.90;88.60
84807;DHT22;75042;43.504;3.714;2024-03-02T00:03:49;6.90;89.40
84807;DHT22;75042;43.504;3.714;2024-03-02T00:06:16;6.90;89.30
84807;DHT22;75042;43.504;3.714;2024-03-02T00:08:45;6.80;89.10
84807;DHT22;75042;43.504;3.714;2024-03-02T00:11:15;6.80;90.00
84807;DHT22;75042;43.504;3.714;2024-03-02T00:13:41;7.00;91.20
84807;DHT22;75042;43.504;3.714;2024-03-02T00:16:07;7.10;90.90
84807;DHT22;75042;43.504;3.714;2024-03-02T00:18:33;7.30;89.50
84807;DHT22;75042;43.504;3.714;2024-03-02T00:21:00;7.30;89.50
84807;DHT22;75042;43.504;3.714;2024-03-02T00:23:32;7.20;88.90
84807;DHT22;75042;43.504;3.714;2024-03-02T00:25:58;7.10;89.00
84807;DHT22;75042;43.504;3.714;2024-03-02T00:28:25;7.00;90.10
84807;DHT22;75042;43.504;3.714;2024-03-02T00:30:55;7.10;90.40
84807;DHT22;75042;43.504;3.714;2024-03-02T00:33:27;7.20;90.30
84807;DHT22;75042;43.504;3.714;2024-03-02T00:35:55;7.20;88.90
84807;DHT22;75042;43.504;3.714;2024-03-02T00:38:21;7.10;88.30
84807;DHT22;75042;43.504;3.714;2024-03-02T00:40:47;7.10;88.60
84807;DHT22;75042;43.504;3.714;2024-03-02T00:43:20;7.10;89.40
84807;DHT22;75042;43.504;3.714;2024-03-02T00:45:55;7.20;89.10
84807;DHT22;75042;43.504;3.714;2024-03-02T00:48:21;7.30;88.40
84807;DHT22;75042;43.504;3.714;2024-03-02T00:50:47;7.30;89.10
84807;DHT22;75042;43.504;3.714;2024-03-02T00:53:15;7.50;88.70
84807;DHT22;75042;43.504;3.714;2024-03-02T00:55:41;7.60;87.90
84807;DHT22;75042;43.504;3.714;2024-03-02T00:58:09;7.70;87.90
84807;DHT22;75042;43.504;3.714;2024-03-02T01:00:35;7.80;88.50
84807;DHT22;75042;43.504;3.714;2024-03-02T01:03:00;7.90;88.70
84807;DHT22;75042;43.504;3.714;2024-03-02T01:05:26;8.10;90.30
84807;DHT22;75042;43.504;3.714;2024-03-02T01:07:51;8.20;90.90
84807;DHT22;75042;43.504;3.714;2024-03-02T01:10:17;8.20;91.80
84807;DHT22;75042;43.504;3.714;2024-03-02T01:12:42;8.30;91.90
84807;DHT22;75042;43.504;3.714;2024-03-02T01:15:08;8.30;91.50
84807;DHT22;75042;43.504;3.714;2024-03-02T01:17:33;8.40;93.40
84807;DHT22;75042;43.504;3.714;2024-03-02T01:19:59;8.40;93.30
84807;DHT22;75042;43.504;3.714;2024-03-02T01:22:24;8.50;93.70
84807;DHT22;75042;43.504;3.714;2024-03-02T01:24:51;8.60;95.00
84807;DHT22;75042;43.504;3.714;2024-03-02T01:27:16;8.70;94.40
84807;DHT22;75042;43.504;3.714;2024-03-02T01:29:42;8.70;93.70
84807;DHT22;75042;43.504;3.714;2024-03-02T01:32:07;8.70;92.60
84807;DHT22;75042;43.504;3.714;2024-03-02T01:34:33;8.60;92.20
84807;DHT22;75042;43.504;3.714;2024-03-02T01:36:59;8.50;91.00
84807;DHT22;75042;43.504;3.714;2024-03-02T01:39:24;8.30;89.70
84807;DHT22;75042;43.504;3.714;2024-03-02T01:41:50;8.20;90.10
84807;DHT22;75042;43.504;3.714;2024-03-02T01:44:15;8.10;91.00
84807;DHT22;75042;43.504;3.714;2024-03-02T01:46:41;7.90;91.80
84807;DHT22;75042;43.504;3.714;2024-03-02T01:49:06;7.80;91.60
84807;DHT22;75042;43.504;3.714;2024-03-02T01:51:32;7.70;91.60
84807;DHT22;75042;43.504;3.714;2024-03-02T01:53:58;7.50;93.10
84807;DHT22;75042;43.504;3.714;2024-03-02T01:56:23;7.50;94.70
84807;DHT22;75042;43.504;3.714;2024-03-02T01:58:49;7.50;95.10
84807;DHT22;75042;43.504;3.714;2024-03-02T02:01:15;7.40;95.60
84807;DHT22;75042;43.504;3.714;2024-03-02T02:03:42;7.40;95.80
84807;DHT22;75042;43.504;3.714;2024-03-02T02:06:09;7.30;96.80
84807;DHT22;75042;43.504;3.714;2024-03-02T02:08:36;7.40;96.70
84807;DHT22;75042;43.504;3.714;2024-03-02T02:11:02;7.30;96.70
84807;DHT22;75042;43.504;3.714;2024-03-02T02:13:27;7.20;96.50
84807;DHT22;75042;43.504;3.714;2024-03-02T02:15:53;7.20;96.90
84807;DHT22;75042;43.504;3.714;2024-03-02T02:18:18;7.10;97.50
84807;DHT22;75042;43.504;3.714;2024-03-02T02:20:44;7.30;97.90
84807;DHT22;75042;43.504;3.714;2024-03-02T02:23:10;7.40;97.40
84807;DHT22;75042;43.504;3.714;2024-03-02T02:25:35;7.50;96.70
84807;DHT22;75042;43.504;3.714;2024-03-02T02:28:01;7.50;96.90
84807;DHT22;75042;43.504;3.714;2024-03-02T02:30:28;7.50;96.40
84807;DHT22;75042;43.504;3.714;2024-03-02T02:32:53;7.50;96.80
84807;DHT22;75042;43.504;3.714;2024-03-02T02:35:19;7.50;97.70
84807;DHT22;75042;43.504;3.714;2024-03-02T02:37:48;7.60;97.80
84807;DHT22;75042;43.504;3.714;2024-03-02T02:40:14;7.70;98.30
84807;DHT22;75042;43.504;3.714;2024-03-02T02:42:40;7.70;99.00
84807;DHT22;75042;43.504;3.714;2024-03-02T02:45:06;7.90;99.50
84807;DHT22;75042;43.504;3.714;2024-03-02T02:47:32;7.90;98.90
84807;DHT22;75042;43.504;3.714;2024-03-02T02:50:01;7.90;99.40
84807;DHT22;75042;43.504;3.714;2024-03-02T02:52:34;7.90;99.40
84807;DHT22;75042;43.504;3.714;2024-03-02T02:55:04;7.90;99.60
84807;DHT22;75042;43.504;3.714;2024-03-02T02:57:31;8.20;99.90
84807;DHT22;75042;43.504;3.714;2024-03-02T03:00:01;8.50;98.50
84807;DHT22;75042;43.504;3.714;2024-03-02T03:02:29;8.40;97.40
84807;DHT22;75042;43.504;3.714;2024-03-02T03:04:55;8.20;97.10
84807;DHT22;75042;43.504;3.714;2024-03-02T03:07:22;8.00;97.10
84807;DHT22;75042;43.504;3.714;2024-03-02T03:09:48;7.70;96.10
84807;DHT22;75042;43.504;3.714;2024-03-02T03:12:14;7.30;96.30
84807;DHT22;75042;43.504;3.714;2024-03-02T03:14:42;7.10;97.60
84807;DHT22;75042;43.504;3.714;2024-03-02T03:17:08;7.10;99.00
84807;DHT22;75042;43.504;3.714;2024-03-02T03:19:33;7.20;99.90
84807;DHT22;75042;43.504;3.714;2024-03-02T03:21:59;7.20;99.90
84807;DHT22;75042;43.504;3.714;2024-03-02T03:24:25;7.10;99.40
84807;DHT22;75042;43.504;3.714;2024-03-02T03:26:50;7.10;98.70
84807;DHT22;75042;43.504;3.714;2024-03-02T03:29:16;7.10;98.20
84807;DHT22;75042;43.504;3.714;2024-03-02T03:31:41;7.00;97.70
84807;DHT22;75042;43.504;3.714;2024-03-02T03:34:07;6.90;98.60
84807;DHT22;75042;43.504;3.714;2024-03-02T03:36:32;6.90;99.20
84807;DHT22;75042;43.504;3.714;2024-03-02T03:38:58;7.00;99.70
84807;DHT22;75042;43.504;3.714;2024-03-02T03:41:23;6.90;99.90
84807;DHT22;75042;43.504;3.714;2024-03-02T03:43:49;6.90;99.90
84807;DHT22;75042;43.504;3.714;2024-03-02T03:46:15;6.90;99.90
84807;DHT22;75042;43.504;3.714;2024-03-02T03:48:40;6.80;99.90
84807;DHT22;75042;43.504;3.714;2024-03-02T03:51:07;6.90;99.90
84807;DHT22;75042;43.504;3.714;2024-03-02T03:53:32;6.90;99.90
84807;DHT22;75042;43.504;3.714;2024-03-02T03:55:58;6.90;99.90
84807;DHT22;75042;43.504;3.714;2024-03-02T03:58:23;6.80;99.90
84807;DHT22;75042;43.504;3.714;2024-03-02T04:00:49;6.70;99.90
84807;DHT22;75042;43.504;3.714;2024-03-02T04:03:14;6.80;99.90
84807;DHT22;75042;43.504;3.714;2024-03-02T04:05:40;6.90;99.90
84807;DHT22;75042;43.504;3.714;2024-03-02T04:08:06;7.00;99.90
84807;DHT22;75042;43.504;3.714;2024-03-02T04:10:31;7.20;99.90
84807;DHT22;75042;43.504;3.714;2024-03-02T04:12:57;7.30;99.90
84807;DHT22;75042;43.504;3.714;2024-03-02T04:15:22;7.30;99.90
84807;DHT22;75042;43.504;3.714;2024-03-02T04:17:48;7.40;99.30
84807;DHT22;75042;43.504;3.714;2024-03-02T04:20:14;7.20;99.90
84807;DHT22;75042;43.504;3.714;2024-03-02T04:22:42;7.30;99.90
84807;DHT22;75042;43.504;3.714;2024-03-02T04:25:07;7.20;99.90
84807;DHT22;75042;43.504;3.714;2024-03-02T04:27:33;7.10;99.90
84807;DHT22;75042;43.504;3.714;2024-03-02T04:29:58;7.00;99.90
84807;DHT22;75042;43.504;3.714;2024-03-02T04:32:26;7.10;99.90
84807;DHT22;75042;43.504;3.714;2024-03-02T04:34:51;7.10;99.90
84807;DHT22;75042;43.504;3.714;2024-03-02T04:37:17;7.00;99.90
84807;DHT22;75042;43.504;3.714;2024-03-02T04:39:42;7.00;99.90
84807;DHT22;75042;43.504;3.714;2024-03-02T04:42:08;7.10;99.90
84807;DHT22;75042;43.504;3.714;2024-03-02T04:44:34;7.10;99.90
84807;DHT22;75042;43.504;3.714;2024-03-02T04:46:59;7.00;99.90
84807;DHT22;75042;43.504;3.714;2024-03-02T04:49:25;6.90;99.90
84807;DHT22;75042;43.504;3.714;2024-03-02T04:51:50;6.90;99.90
84807;DHT22;75042;43.504;3.714;2024-03-02T04:54:16;6.80;99.90
84807;DHT22;75042;43.504;3.714;2024-03-02T04:56:42;6.80;99.90
84807;DHT22;75042;43.504;3.714;2024-03-02T04:59:15;6.60;99.90
84807;DHT22;75042;43.504;3.714;2024-03-02T05:01:41;6.60;99.90
84807;DHT22;75042;43.504;3.714;2024-03-02T05:04:06;6.50;99.90
84807;DHT22;75042;43.504;3.714;2024-03-02T05:06:32;6.40;99.90
84807;DHT22;75042;43.504;3.714;2024-03-02T05:08:57;6.30;99.90
84807;DHT22;75042;43.504;3.714;2024-03-02T05:11:23;6.30;99.90
84807;DHT22;75042;43.504;3.714;2024-03-02T05:14:04;6.40;99.90
84807;DHT22;75042;43.504;3.714;2024-03-02T05:16:33;6.80;99.90
84807;DHT22;75042;43.504;3.714;2024-03-02T05:18:59;7.00;99.90
84807;DHT22;75042;43.504;3.714;2024-03-02T05:21:25;7.10;99.90
84807;DHT22;75042;43.504;3.714;2024-03-02T05:23:51;7.20;99.90
84807;DHT22;75042;43.504;3.714;2024-03-02T05:26:16;7.20;99.90
84807;DHT22;75042;43.504;3.714;2024-03-02T05:28:42;7.20;99.90
84807;DHT22;75042;43.504;3.714;2024-03-02T05:31:10;7.20;99.90
84807;DHT22;75042;43.504;3.714;2024-03-02T05:33:37;7.10;99.90
84807;DHT22;75042;43.504;3.714;2024-03-02T05:36:03;7.00;99.90
84807;DHT22;75042;43.504;3.714;2024-03-02T05:38:29;6.90;99.90
84807;DHT22;75042;43.504;3.714;2024-03-02T05:40:55;6.90;99.90
84807;DHT22;75042;43.504;3.714;2024-03-02T05:43:20;6.90;99.90
84807;DHT22;75042;43.504;3.714;2024-03-02T05:45:46;6.90;99.90
84807;DHT22;75042;43.504;3.714;2024-03-02T05:48:11;6.80;99.90
84807;DHT22;75042;43.504;3.714;2024-03-02T05:50:37;6.70;99.90
84807;DHT22;75042;43.504;3.714;2024-03-02T05:53:03;6.60;99.90
84807;DHT22;75042;43.504;3.714;2024-03-02T05:55:29;6.60;99.90
84807;DHT22;75042;43.504;3.714;2024-03-02T05:57:54;6.60;99.90
84807;DHT22;75042;43.504;3.714;2024-03-02T06:00:25;6.50;99.90
84807;DHT22;75042;43.504;3.714;2024-03-02T06:02:50;6.50;99.90
84807;DHT22;75042;43.504;3.714;2024-03-02T06:05:16;6.50;99.90
84807;DHT22;75042;43.504;3.714;2024-03-02T06:07:43;6.50;99.90
84807;DHT22;75042;43.504;3.714;2024-03-02T06:10:08;6.50;99.90
84807;DHT22;75042;43.504;3.714;2024-03-02T06:12:34;6.50;99.90
84807;DHT22;75042;43.504;3.714;2024-03-02T06:15:00;6.50;99.90
84807;DHT22;75042;43.504;3.714;2024-03-02T06:17:25;6.50;99.90
84807;DHT22;75042;43.504;3.714;2024-03-02T06:19:51;6.50;99.90
84807;DHT22;75042;43.504;3.714;2024-03-02T06:22:16;6.60;99.90
84807;DHT22;75042;43.504;3.714;2024-03-02T06:24:42;6.70;99.90
84807;DHT22;75042;43.504;3.714;2024-03-02T06:27:07;6.70;99.90
84807;DHT22;75042;43.504;3.714;2024-03-02T06:29:33;6.70;99.60
84807;DHT22;75042;43.504;3.714;2024-03-02T06:31:59;6.70;99.90
84807;DHT22;75042;43.504;3.714;2024-03-02T06:34:25;6.80;99.90
84807;DHT22;75042;43.504;3.714;2024-03-02T06:36:50;6.80;99.90
84807;DHT22;75042;43.504;3.714;2024-03-02T06:39:16;6.90;99.50
84807;DHT22;75042;43.504;3.714;2024-03-02T06:41:41;7.00;99.20
84807;DHT22;75042;43.504;3.714;2024-03-02T06:44:12;7.00;99.10
84807;DHT22;75042;43.504;3.714;2024-03-02T06:46:38;7.00;99.30
84807;DHT22;75042;43.504;3.714;2024-03-02T06:49:04;7.10;99.50
84807;DHT22;75042;43.504;3.714;2024-03-02T06:51:33;7.10;99.60
84807;DHT22;75042;43.504;3.714;2024-03-02T06:53:59;7.20;99.30
84807;DHT22;75042;43.504;3.714;2024-03-02T06:56:24;7.30;99.20
84807;DHT22;75042;43.504;3.714;2024-03-02T06:58:50;7.40;98.80
84807;DHT22;75042;43.504;3.714;2024-03-02T07:01:15;7.40;98.70
84807;DHT22;75042;43.504;3.714;2024-03-02T07:03:41;7.50;98.60
84807;DHT22;75042;43.504;3.714;2024-03-02T07:06:07;7.50;98.60
84807;DHT22;75042;43.504;3.714;2024-03-02T07:08:33;7.60;98.80
84807;DHT22;75042;43.504;3.714;2024-03-02T07:10:58;7.60;99.10
84807;DHT22;75042;43.504;3.714;2024-03-02T07:13:24;7.60;99.40
84807;DHT22;75042;43.504;3.714;2024-03-02T07:15:50;7.70;99.50
84807;DHT22;75042;43.504;3.714;2024-03-02T07:18:34;7.80;99.60
84807;DHT22;75042;43.504;3.714;2024-03-02T07:21:02;7.80;99.40
84807;DHT22;75042;43.504;3.714;2024-03-02T07:23:28;7.90;99.40
84807;DHT22;75042;43.504;3.714;2024-03-02T07:25:53;7.90;99.50
84807;DHT22;75042;43.504;3.714;2024-03-02T07:28:25;8.00;99.20
84807;DHT22;75042;43.504;3.714;2024-03-02T07:31:00;8.10;98.70
84807;DHT22;75042;43.504;3.714;2024-03-02T07:33:26;8.10;98.80
84807;DHT22;75042;43.504;3.714;2024-03-02T07:35:51;8.20;98.50
84807;DHT22;75042;43.504;3.714;2024-03-02T07:38:17;8.20;98.40
84807;DHT22;75042;43.504;3.714;2024-03-02T07:40:43;8.20;98.20
84807;DHT22;75042;43.504;3.714;2024-03-02T07:43:09;8.30;98.10
84807;DHT22;75042;43.504;3.714;2024-03-02T07:45:34;8.40;97.90
84807;DHT22;75042;43.504;3.714;2024-03-02T07:48:01;8.40;97.70
84807;DHT22;75042;43.504;3.714;2024-03-02T07:50:29;8.40;97.50
84807;DHT22;75042;43.504;3.714;2024-03-02T07:52:55;8.50;97.30
84807;DHT22;75042;43.504;3.714;2024-03-02T07:55:21;8.50;97.20
84807;DHT22;75042;43.504;3.714;2024-03-02T07:57:46;8.50;97.00
84807;DHT22;75042;43.504;3.714;2024-03-02T08:00:12;8.60;97.10
84807;DHT22;75042;43.504;3.714;2024-03-02T08:02:39;8.60;97.60
84807;DHT22;75042;43.504;3.714;2024-03-02T08:05:05;8.60;97.30
84807;DHT22;75042;43.504;3.714;2024-03-02T08:07:31;8.70;96.80
84807;DHT22;75042;43.504;3.714;2024-03-02T08:09:56;8.70;97.10
84807;DHT22;75042;43.504;3.714;2024-03-02T08:12:22;8.70;96.80
84807;DHT22;75042;43.504;3.714;2024-03-02T08:14:48;8.80;96.60
84807;DHT22;75042;43.504;3.714;2024-03-02T08:17:14;8.80;96.70
84807;DHT22;75042;43.504;3.714;2024-03-02T08:19:40;8.70;96.90
84807;DHT22;75042;43.504;3.714;2024-03-02T08:22:05;8.80;97.00
84807;DHT22;75042;43.504;3.714;2024-03-02T08:24:31;8.80;96.70
84807;DHT22;75042;43.504;3.714;2024-03-02T08:26:58;8.90;96.00
84807;DHT22;75042;43.504;3.714;2024-03-02T08:29:24;9.00;95.60
84807;DHT22;75042;43.504;3.714;2024-03-02T08:31:49;9.10;95.30
84807;DHT22;75042;43.504;3.714;2024-03-02T08:34:15;9.00;95.40
84807;DHT22;75042;43.504;3.714;2024-03-02T08:36:40;9.00;95.70
84807;DHT22;75042;43.504;3.714;2024-03-02T08:39:07;9.10;95.70
84807;DHT22;75042;43.504;3.714;2024-03-02T08:41:41;9.10;95.90
84807;DHT22;75042;43.504;3.714;2024-03-02T08:44:07;9.20;95.80
84807;DHT22;75042;43.504;3.714;2024-03-02T08:46:32;9.20;96.00
84807;DHT22;75042;43.504;3.714;2024-03-02T08:48:58;9.20;95.90
84807;DHT22;75042;43.504;3.714;2024-03-02T08:51:23;9.30;95.80
84807;DHT22;75042;43.504;3.714;2024-03-02T08:53:51;9.30;95.80
84807;DHT22;75042;43.504;3.714;2024-03-02T08:56:16;9.40;95.60
84807;DHT22;75042;43.504;3.714;2024-03-02T08:58:43;9.40;95.90
84807;DHT22;75042;43.504;3.714;2024-03-02T09:01:09;9.50;96.00
84807;DHT22;75042;43.504;3.714;2024-03-02T09:03:37;9.60;95.50
84807;DHT22;75042;43.504;3.714;2024-03-02T09:06:03;9.70;95.70
84807;DHT22;75042;43.504;3.714;2024-03-02T09:08:28;9.70;95.80
84807;DHT22;75042;43.504;3.714;2024-03-02T09:10:54;9.80;96.10
84807;DHT22;75042;43.504;3.714;2024-03-02T09:13:20;9.80;96.00
84807;DHT22;75042;43.504;3.714;2024-03-02T09:15:46;9.90;95.90
84807;DHT22;75042;43.504;3.714;2024-03-02T09:18:11;10.00;95.70
84807;DHT22;75042;43.504;3.714;2024-03-02T09:20:37;10.20;94.90
84807;DHT22;75042;43.504;3.714;2024-03-02T09:23:02;10.20;94.70
84807;DHT22;75042;43.504;3.714;2024-03-02T09:25:28;10.40;94.10
84807;DHT22;75042;43.504;3.714;2024-03-02T09:27:53;10.50;94.20
84807;DHT22;75042;43.504;3.714;2024-03-02T09:30:19;10.90;92.40
84807;DHT22;75042;43.504;3.714;2024-03-02T09:32:45;11.00;91.00
84807;DHT22;75042;43.504;3.714;2024-03-02T09:35:10;11.10;90.90
84807;DHT22;75042;43.504;3.714;2024-03-02T09:37:37;11.30;89.70
84807;DHT22;75042;43.504;3.714;2024-03-02T09:40:03;11.50;89.10
84807;DHT22;75042;43.504;3.714;2024-03-02T09:42:29;11.60;88.60
84807;DHT22;75042;43.504;3.714;2024-03-02T09:44:54;11.80;87.00
84807;DHT22;75042;43.504;3.714;2024-03-02T09:47:20;12.40;85.30
84807;DHT22;75042;43.504;3.714;2024-03-02T09:49:46;12.50;83.20
84807;DHT22;75042;43.504;3.714;2024-03-02T09:52:11;12.50;84.40
84807;DHT22;75042;43.504;3.714;2024-03-02T09:54:38;12.80;81.70
84807;DHT22;75042;43.504;3.714;2024-03-02T09:57:04;13.30;79.60
84807;DHT22;75042;43.504;3.714;2024-03-02T09:59:30;14.70;75.10
84807;DHT22;75042;43.504;3.714;2024-03-02T10:01:59;15.50;70.40
84807;DHT22;75042;43.504;3.714;2024-03-02T10:04:25;16.10;67.30
84807;DHT22;75042;43.504;3.714;2024-03-02T10:06:51;17.20;63.80
84807;DHT22;75042;43.504;3.714;2024-03-02T10:09:28;18.30;59.00
84807;DHT22;75042;43.504;3.714;2024-03-02T10:12:03;19.10;53.80
84807;DHT22;75042;43.504;3.714;2024-03-02T10:14:29;18.20;57.30
84807;DHT22;75042;43.504;3.714;2024-03-02T10:16:54;19.10;55.30
84807;DHT22;75042;43.504;3.714;2024-03-02T10:19:26;20.20;49.20
84807;DHT22;75042;43.504;3.714;2024-03-02T10:21:53;18.40;49.30
84807;DHT22;75042;43.504;3.714;2024-03-02T10:24:19;17.90;50.00
84807;DHT22;75042;43.504;3.714;2024-03-02T10:26:45;17.50;50.60
84807;DHT22;75042;43.504;3.714;2024-03-02T10:29:10;17.40;50.60
84807;DHT22;75042;43.504;3.714;2024-03-02T10:31:37;17.80;50.50
84807;DHT22;75042;43.504;3.714;2024-03-02T10:34:02;18.70;49.40
84807;DHT22;75042;43.504;3.714;2024-03-02T10:36:29;18.20;49.60
84807;DHT22;75042;43.504;3.714;2024-03-02T10:38:56;17.60;51.30
84807;DHT22;75042;43.504;3.714;2024-03-02T10:41:26;17.40;52.30
84807;DHT22;75042;43.504;3.714;2024-03-02T10:43:52;17.10;52.50
84807;DHT22;75042;43.504;3.714;2024-03-02T10:46:20;16.30;55.40
84807;DHT22;75042;43.504;3.714;2024-03-02T10:48:48;15.80;56.10
84807;DHT22;75042;43.504;3.714;2024-03-02T10:51:14;15.60;55.60
84807;DHT22;75042;43.504;3.714;2024-03-02T10:53:40;15.60;57.20
84807;DHT22;75042;43.504;3.714;2024-03-02T11:01:47;15.70;57.30
84807;DHT22;75042;43.504;3.714;2024-03-02T11:04:13;15.60;57.00
84807;DHT22;75042;43.504;3.714;2024-03-02T11:06:41;15.50;55.70
84807;DHT22;75042;43.504;3.714;2024-03-02T11:09:11;15.40;56.40
84807;DHT22;75042;43.504;3.714;2024-03-02T11:11:40;15.50;56.30
84807;DHT22;75042;43.504;3.714;2024-03-02T11:14:07;15.40;55.10
84807;DHT22;75042;43.504;3.714;2024-03-02T11:16:37;15.20;54.70
84807;DHT22;75042;43.504;3.714;2024-03-02T11:19:05;15.30;55.30
84807;DHT22;75042;43.504;3.714;2024-03-02T11:21:32;15.30;55.80
84807;DHT22;75042;43.504;3.714;2024-03-02T11:23:58;15.70;54.80
84807;DHT22;75042;43.504;3.714;2024-03-02T11:26:23;15.60;55.10
84807;DHT22;75042;43.504;3.714;2024-03-02T11:28:49;15.40;55.70
84807;DHT22;75042;43.504;3.714;2024-03-02T11:31:15;15.10;57.50
84807;DHT22;75042;43.504;3.714;2024-03-02T11:33:41;14.80;59.40
84807;DHT22;75042;43.504;3.714;2024-03-02T11:36:06;15.00;60.00
84807;DHT22;75042;43.504;3.714;2024-03-02T11:38:33;14.70;60.70
84807;DHT22;75042;43.504;3.714;2024-03-02T11:41:00;14.50;61.20
84807;DHT22;75042;43.504;3.714;2024-03-02T11:43:27;14.60;62.30
84807;DHT22;75042;43.504;3.714;2024-03-02T11:45:56;14.50;62.70
84807;DHT22;75042;43.504;3.714;2024-03-02T11:48:22;14.50;63.50
84807;DHT22;75042;43.504;3.714;2024-03-02T11:50:50;14.50;63.80
84807;DHT22;75042;43.504;3.714;2024-03-02T11:53:15;14.50;63.40
84807;DHT22;75042;43.504;3.714;2024-03-02T11:55:42;14.60;63.40
84807;DHT22;75042;43.504;3.714;2024-03-02T11:58:14;14.80;63.30
84807;DHT22;75042;43.504;3.714;2024-03-02T12:00:40;15.00;63.00
84807;DHT22;75042;43.504;3.714;2024-03-02T12:03:06;15.00;63.20
84807;DHT22;75042;43.504;3.714;2024-03-02T12:05:32;15.00;62.90
84807;DHT22;75042;43.504;3.714;2024-03-02T12:07:58;15.00;62.60
84807;DHT22;75042;43.504;3.714;2024-03-02T12:10:24;15.10;61.90
84807;DHT22;75042;43.504;3.714;2024-03-02T12:15:32;15.40;61.70
84807;DHT22;75042;43.504;3.714;2024-03-02T12:17:59;15.00;61.80
84807;DHT22;75042;43.504;3.714;2024-03-02T12:20:25;14.90;61.60
84807;DHT22;75042;43.504;3.714;2024-03-02T12:22:51;14.80;62.20
84807;DHT22;75042;43.504;3.714;2024-03-02T12:25:18;15.00;61.50
84807;DHT22;75042;43.504;3.714;2024-03-02T12:27:44;15.00;61.90
84807;DHT22;75042;43.504;3.714;2024-03-02T12:30:11;14.90;62.70
84807;DHT22;75042;43.504;3.714;2024-03-02T12:32:37;14.70;63.00
84807;DHT22;75042;43.504;3.714;2024-03-02T12:35:04;14.80;64.10
84807;DHT22;75042;43.504;3.714;2024-03-02T12:37:30;14.70;64.60
84807;DHT22;75042;43.504;3.714;2024-03-02T12:39:55;14.50;65.00
84807;DHT22;75042;43.504;3.714;2024-03-02T12:42:21;14.40;66.20
84807;DHT22;75042;43.504;3.714;2024-03-02T12:44:46;14.30;67.00
84807;DHT22;75042;43.504;3.714;2024-03-02T12:47:12;14.30;67.10
84807;DHT22;75042;43.504;3.714;2024-03-02T12:49:39;14.20;68.60
84807;DHT22;75042;43.504;3.714;2024-03-02T12:52:05;14.30;68.00
84807;DHT22;75042;43.504;3.714;2024-03-02T12:54:31;14.30;68.50
84807;DHT22;75042;43.504;3.714;2024-03-02T12:56:58;14.40;68.10
84807;DHT22;75042;43.504;3.714;2024-03-02T12:59:24;14.50;68.40
84807;DHT22;75042;43.504;3.714;2024-03-02T13:01:54;14.60;68.10
84807;DHT22;75042;43.504;3.714;2024-03-02T13:04:23;14.40;67.80
84807;DHT22;75042;43.504;3.714;2024-03-02T13:06:49;14.40;68.10
84807;DHT22;75042;43.504;3.714;2024-03-02T13:09:15;14.40;68.00
84807;DHT22;75042;43.504;3.714;2024-03-02T13:11:41;14.30;66.40
84807;DHT22;75042;43.504;3.714;2024-03-02T13:14:07;14.20;67.20
84807;DHT22;75042;43.504;3.714;2024-03-02T13:16:38;14.20;68.00
84807;DHT22;75042;43.504;3.714;2024-03-02T13:19:04;14.00;68.50
84807;DHT22;75042;43.504;3.714;2024-03-02T13:21:29;14.10;70.10
84807;DHT22;75042;43.504;3.714;2024-03-02T13:23:55;14.00;71.30
84807;DHT22;75042;43.504;3.714;2024-03-02T13:26:20;14.10;71.70
84807;DHT22;75042;43.504;3.714;2024-03-02T13:28:46;14.10;72.70
84807;DHT22;75042;43.504;3.714;2024-03-02T13:31:11;14.10;73.30
84807;DHT22;75042;43.504;3.714;2024-03-02T13:33:37;14.20;72.80
84807;DHT22;75042;43.504;3.714;2024-03-02T13:36:03;14.30;73.70
84807;DHT22;75042;43.504;3.714;2024-03-02T13:38:28;14.50;73.20
84807;DHT22;75042;43.504;3.714;2024-03-02T13:40:54;14.60;73.10
84807;DHT22;75042;43.504;3.714;2024-03-02T13:43:19;14.60;73.10
84807;DHT22;75042;43.504;3.714;2024-03-02T13:45:45;14.70;72.70
84807;DHT22;75042;43.504;3.714;2024-03-02T13:48:10;14.90;70.40
84807;DHT22;75042;43.504;3.714;2024-03-02T13:50:36;14.80;70.40
84807;DHT22;75042;43.504;3.714;2024-03-02T13:53:01;14.90;70.10
84807;DHT22;75042;43.504;3.714;2024-03-02T13:55:28;14.80;69.60
84807;DHT22;75042;43.504;3.714;2024-03-02T13:57:54;14.90;69.70
84807;DHT22;75042;43.504;3.714;2024-03-02T14:00:19;14.80;68.80
84807;DHT22;75042;43.504;3.714;2024-03-02T14:02:45;14.70;68.50
84807;DHT22;75042;43.504;3.714;2024-03-02T14:05:11;14.70;68.10
84807;DHT22;75042;43.504;3.714;2024-03-02T14:07:40;14.80;68.10
84807;DHT22;75042;43.504;3.714;2024-03-02T14:10:06;14.70;68.20
84807;DHT22;75042;43.504;3.714;2024-03-02T14:12:32;14.80;67.40
84807;DHT22;75042;43.504;3.714;2024-03-02T14:14:57;14.70;66.60
84807;DHT22;75042;43.504;3.714;2024-03-02T14:17:26;14.80;66.50
84807;DHT22;75042;43.504;3.714;2024-03-02T14:19:52;14.80;66.20
84807;DHT22;75042;43.504;3.714;2024-03-02T14:22:19;14.70;67.40
84807;DHT22;75042;43.504;3.714;2024-03-02T14:24:44;14.70;67.20
84807;DHT22;75042;43.504;3.714;2024-03-02T14:27:10;14.60;68.30
84807;DHT22;75042;43.504;3.714;2024-03-02T14:29:36;14.70;68.60
84807;DHT22;75042;43.504;3.714;2024-03-02T14:32:03;14.60;69.50
84807;DHT22;75042;43.504;3.714;2024-03-02T14:34:29;14.70;70.80
84807;DHT22;75042;43.504;3.714;2024-03-02T14:36:54;14.70;71.10
84807;DHT22;75042;43.504;3.714;2024-03-02T14:39:20;14.70;72.50
84807;DHT22;75042;43.504;3.714;2024-03-02T14:41:46;14.60;73.00
84807;DHT22;75042;43.504;3.714;2024-03-02T14:44:12;14.50;75.00
84807;DHT22;75042;43.504;3.714;2024-03-02T14:46:37;14.40;77.30
84807;DHT22;75042;43.504;3.714;2024-03-02T14:49:03;14.30;79.10
84807;DHT22;75042;43.504;3.714;2024-03-02T14:51:29;14.30;80.70
84807;DHT22;75042;43.504;3.714;2024-03-02T14:53:55;14.20;82.00
84807;DHT22;75042;43.504;3.714;2024-03-02T14:56:21;14.10;82.90
84807;DHT22;75042;43.504;3.714;2024-03-02T14:58:46;14.00;82.90
84807;DHT22;75042;43.504;3.714;2024-03-02T15:01:12;14.00;83.30
84807;DHT22;75042;43.504;3.714;2024-03-02T15:03:38;14.00;84.20
84807;DHT22;75042;43.504;3.714;2024-03-02T15:06:03;14.00;84.40
84807;DHT22;75042;43.504;3.714;2024-03-02T15:08:29;14.00;84.80
84807;DHT22;75042;43.504;3.714;2024-03-02T15:10:55;13.90;85.80
84807;DHT22;75042;43.504;3.714;2024-03-02T15:13:25;13.90;85.00
84807;DHT22;75042;43.504;3.714;2024-03-02T15:15:51;13.70;85.30
84807;DHT22;75042;43.504;3.714;2024-03-02T15:18:17;13.60;84.20
84807;DHT22;75042;43.504;3.714;2024-03-02T15:20:43;13.60;84.10
84807;DHT22;75042;43.504;3.714;2024-03-02T15:23:09;13.50;83.60
84807;DHT22;75042;43.504;3.714;2024-03-02T15:25:34;13.40;84.20
84807;DHT22;75042;43.504;3.714;2024-03-02T15:28:00;13.40;84.50
84807;DHT22;75042;43.504;3.714;2024-03-02T15:30:26;13.30;83.90
84807;DHT22;75042;43.504;3.714;2024-03-02T15:32:51;13.30;84.20
84807;DHT22;75042;43.504;3.714;2024-03-02T15:35:17;13.30;84.70
84807;DHT22;75042;43.504;3.714;2024-03-02T15:37:42;13.30;85.20
84807;DHT22;75042;43.504;3.714;2024-03-02T15:40:08;13.30;85.70
84807;DHT22;75042;43.504;3.714;2024-03-02T15:42:34;13.20;86.00